Time;durP1;ratioP1;P1;durP2;ratioP2;P2;SDS_P1;SDS_P2;PMS_P1;PMS_P2;Temp;Humidity;BMP_temperature;BMP_pressure;BME280_temperature;BME280_humidity;BME280_pressure;Samples;Min_cycle;Max_cycle;Signal;HPM_P1;HPM_P2
2021/01/18 00:00:28;;;;;;;9.27;6.07;;;5.10;99.90;;;;;;5079417;28;20444;-71
2021/01/18 00:02:54;;;;;;;26.80;7.80;;;5.00;99.90;;;;;;5061898;28;20875;-70
2021/01/18 00:05:21;;;;;;;9.10;7.80;;;5.10;99.90;;;;;;5071694;28;20441;-69
2021/01/18 00:07:49;;;;;;;13.87;10.17;;;5.10;99.90;;;;;;5078903;28;20494;-71
2021/01/18 00:10:18;;;;;;;9.30;7.77;;;5.20;99.90;;;;;;5082111;28;20506;-70
2021/01/18 00:12:46;;;;;;;11.10;7.10;;;5.20;99.90;;;;;;5080183;28;20456;-70
2021/01/18 00:15:15;;;;;;;13.27;9.30;;;5.20;99.90;;;;;;5074469;28;20449;-69
2021/01/18 00:17:42;;;;;;;15.70;9.13;;;5.10;99.90;;;;;;5084252;28;20468;-71
2021/01/18 00:20:11;;;;;;;14.00;10.27;;;5.20;99.90;;;;;;5077151;28;20901;-70
2021/01/18 00:22:38;;;;;;;15.97;10.63;;;5.20;99.90;;;;;;5084425;28;20481;-70
2021/01/18 00:25:08;;;;;;;33.27;9.20;;;5.20;99.90;;;;;;5080421;28;20548;-70
2021/01/18 00:27:34;;;;;;;14.20;9.33;;;5.20;99.90;;;;;;5079582;28;20437;-70
2021/01/18 00:30:02;;;;;;;25.50;7.27;;;5.20;99.90;;;;;;5078149;28;20444;-69
2021/01/18 00:32:29;;;;;;;18.80;7.90;;;5.20;99.90;;;;;;5076577;28;20802;-69
2021/01/18 00:34:58;;;;;;;8.43;5.77;;;5.20;99.90;;;;;;5070461;28;20428;-69
2021/01/18 00:37:25;;;;;;;22.77;9.27;;;5.40;99.90;;;;;;5079629;28;20436;-69
2021/01/18 00:39:52;;;;;;;23.60;9.30;;;5.30;99.90;;;;;;5075540;28;20504;-70
2021/01/18 00:42:19;;;;;;;18.07;9.17;;;5.20;99.90;;;;;;5073360;28;20443;-71
2021/01/18 00:44:46;;;;;;;14.07;9.67;;;5.30;99.90;;;;;;5079451;28;20486;-71
2021/01/18 00:47:13;;;;;;;15.83;7.00;;;5.30;99.90;;;;;;5082333;28;20517;-70
2021/01/18 00:49:40;;;;;;;19.90;8.90;;;5.40;99.90;;;;;;5079723;28;20573;-71
2021/01/18 00:52:07;;;;;;;14.63;8.47;;;5.40;99.90;;;;;;5084867;28;20455;-71
2021/01/18 00:54:34;;;;;;;20.80;9.50;;;5.40;99.90;;;;;;5077881;28;20516;-69
2021/01/18 00:57:00;;;;;;;16.93;6.73;;;5.50;99.90;;;;;;5078067;28;21037;-69
2021/01/18 00:59:27;;;;;;;13.87;7.83;;;5.40;99.90;;;;;;5079480;28;20462;-70
2021/01/18 01:01:54;;;;;;;6.97;6.10;;;5.40;99.90;;;;;;5081619;28;20475;-71
2021/01/18 01:04:20;;;;;;;27.00;9.20;;;5.40;99.90;;;;;;5066625;28;20443;-70
2021/01/18 01:06:48;;;;;;;21.87;9.33;;;5.30;99.90;;;;;;5078981;28;20461;-70
2021/01/18 01:09:14;;;;;;;9.93;5.13;;;5.20;99.90;;;;;;5076436;28;20593;-69
2021/01/18 01:11:45;;;;;;;12.97;7.93;;;5.30;99.90;;;;;;5078226;28;20459;-71
2021/01/18 01:14:12;;;;;;;13.03;5.67;;;5.30;99.90;;;;;;5075065;28;20456;-69
2021/01/18 01:16:39;;;;;;;14.53;7.77;;;5.30;99.90;;;;;;5081628;28;20465;-69
2021/01/18 01:19:05;;;;;;;14.77;9.53;;;5.20;99.90;;;;;;5078468;28;20448;-70
2021/01/18 01:21:32;;;;;;;20.00;7.20;;;5.10;99.90;;;;;;5081637;28;20734;-69
2021/01/18 01:23:59;;;;;;;4.20;3.73;;;5.10;99.90;;;;;;5072483;28;20489;-70
2021/01/18 01:26:26;;;;;;;36.30;8.47;;;5.20;99.90;;;;;;5085468;28;20487;-69
2021/01/18 01:28:53;;;;;;;17.80;8.43;;;5.20;99.90;;;;;;5076237;28;20480;-70
2021/01/18 01:31:19;;;;;;;16.00;7.13;;;5.20;99.90;;;;;;5075842;28;20934;-70
2021/01/18 01:33:46;;;;;;;7.10;5.47;;;5.30;99.90;;;;;;5072703;28;20544;-71
2021/01/18 01:36:12;;;;;;;5.37;4.50;;;5.30;99.90;;;;;;5076940;28;20477;-70
2021/01/18 01:38:39;;;;;;;8.37;6.10;;;5.20;99.90;;;;;;5077906;28;20532;-69
2021/01/18 01:41:07;;;;;;;8.67;5.40;;;5.30;99.90;;;;;;5073903;28;20478;-70
2021/01/18 01:43:33;;;;;;;19.43;6.40;;;5.30;99.90;;;;;;5084959;28;20432;-70
2021/01/18 01:46:00;;;;;;;12.30;8.30;;;5.30;99.90;;;;;;5088911;28;20832;-70
2021/01/18 01:48:27;;;;;;;6.43;5.83;;;5.30;99.90;;;;;;5077763;28;20510;-69
2021/01/18 01:50:54;;;;;;;16.97;7.57;;;5.30;99.90;;;;;;5060243;28;20469;-70
2021/01/18 01:53:24;;;;;;;13.70;9.53;;;5.40;99.90;;;;;;5077675;28;20492;-69
2021/01/18 01:55:51;;;;;;;12.13;8.27;;;5.40;99.90;;;;;;5079000;28;21021;-71
2021/01/18 01:58:21;;;;;;;9.47;7.40;;;5.40;99.90;;;;;;5073213;28;21055;-71
2021/01/18 02:00:49;;;;;;;11.60;6.90;;;5.40;99.90;;;;;;5078060;28;20478;-71
2021/01/18 02:03:20;;;;;;;22.40;9.23;;;5.30;99.90;;;;;;5086608;28;20479;-70
2021/01/18 02:05:48;;;;;;;14.30;8.73;;;5.30;99.90;;;;;;5087749;28;20454;-71
2021/01/18 02:08:15;;;;;;;10.97;6.17;;;5.30;99.90;;;;;;5080936;28;20576;-70
2021/01/18 02:10:42;;;;;;;10.97;8.33;;;5.30;99.90;;;;;;5087231;28;20537;-70
2021/01/18 02:13:23;;;;;;;18.73;11.17;;;5.20;99.90;;;;;;5086056;28;20468;-70
2021/01/18 02:15:59;;;;;;;22.53;7.90;;;5.20;99.90;;;;;;5089699;28;20470;-70
2021/01/18 02:18:52;;;;;;;22.20;9.63;;;5.10;99.90;;;;;;5083001;28;20505;-69
2021/01/18 02:21:56;;;;;;;9.73;6.20;;;5.20;99.90;;;;;;5078112;28;20469;-71
2021/01/18 02:25:01;;;;;;;22.10;9.20;;;5.10;99.90;;;;;;5085237;28;20492;-70
2021/01/18 02:27:54;;;;;;;13.50;8.80;;;5.10;99.90;;;;;;5066356;28;21049;-70
2021/01/18 02:30:32;;;;;;;14.03;10.20;;;5.00;99.90;;;;;;5083270;28;20508;-69
2021/01/18 02:33:25;;;;;;;14.37;10.47;;;5.00;99.90;;;;;;5081753;28;20518;-69
2021/01/18 02:36:15;;;;;;;20.57;10.27;;;4.90;99.90;;;;;;5090865;28;20787;-69
2021/01/18 02:38:55;;;;;;;26.10;7.00;;;4.90;99.90;;;;;;5074878;28;20441;-72
2021/01/18 02:41:30;;;;;;;18.00;11.23;;;4.80;99.90;;;;;;5082409;28;20894;-69
2021/01/18 02:44:04;;;;;;;26.50;12.40;;;4.80;99.90;;;;;;5083437;28;20820;-70
2021/01/18 02:46:33;;;;;;;22.77;10.60;;;4.90;99.90;;;;;;5081776;28;20472;-70
2021/01/18 02:49:01;;;;;;;8.40;7.60;;;4.80;99.90;;;;;;5081738;28;20477;-69
2021/01/18 02:51:32;;;;;;;18.90;12.73;;;4.90;99.90;;;;;;5077174;28;20556;-69
2021/01/18 02:53:59;;;;;;;21.20;10.37;;;4.80;99.90;;;;;;5071831;28;20473;-69
2021/01/18 02:56:27;;;;;;;26.73;11.67;;;4.80;99.90;;;;;;5075889;28;20571;-71
2021/01/18 02:58:56;;;;;;;21.20;10.83;;;4.90;99.90;;;;;;5081505;28;20523;-69
2021/01/18 03:01:45;;;;;;;12.47;9.33;;;5.00;99.90;;;;;;5081082;28;20428;-72
2021/01/18 03:04:22;;;;;;;20.23;8.00;;;5.00;99.90;;;;;;5076097;28;20523;-69
2021/01/18 03:06:55;;;;;;;14.40;9.13;;;5.00;99.90;;;;;;5079523;28;20535;-71
2021/01/18 03:09:29;;;;;;;9.60;7.13;;;5.00;99.90;;;;;;5079216;28;20464;-70
2021/01/18 03:12:07;;;;;;;9.03;4.87;;;5.00;99.90;;;;;;5074530;28;20544;-71
2021/01/18 03:14:38;;;;;;;14.57;7.33;;;5.10;99.90;;;;;;5076566;28;20488;-70
2021/01/18 03:17:06;;;;;;;15.17;8.37;;;5.00;99.90;;;;;;5079050;28;20470;-71
2021/01/18 03:19:41;;;;;;;12.30;5.60;;;5.10;99.90;;;;;;5077999;28;20457;-70
2021/01/18 03:22:09;;;;;;;15.43;6.40;;;5.00;99.90;;;;;;5075071;28;20442;-70
2021/01/18 03:24:36;;;;;;;16.93;6.10;;;5.00;99.90;;;;;;5080456;28;20515;-71
2021/01/18 03:27:04;;;;;;;13.67;9.80;;;5.10;99.90;;;;;;5075899;28;20458;-70
2021/01/18 03:29:30;;;;;;;24.77;7.87;;;5.10;99.90;;;;;;5076962;28;20485;-71
2021/01/18 03:31:57;;;;;;;9.20;6.40;;;5.20;99.90;;;;;;5089592;28;20511;-70
2021/01/18 03:34:24;;;;;;;14.73;8.03;;;5.10;99.90;;;;;;5075979;28;20482;-71
2021/01/18 03:36:50;;;;;;;9.47;6.63;;;5.10;99.90;;;;;;5077473;28;20551;-70
2021/01/18 03:39:18;;;;;;;15.70;8.70;;;5.20;99.90;;;;;;5082454;28;20887;-71
2021/01/18 03:41:45;;;;;;;7.90;6.97;;;5.20;99.90;;;;;;5079430;28;20540;-70
2021/01/18 03:44:12;;;;;;;18.73;8.73;;;5.30;99.90;;;;;;5079748;28;20465;-71
2021/01/18 03:46:43;;;;;;;10.33;7.83;;;5.20;99.90;;;;;;5078094;28;20581;-71
2021/01/18 03:49:10;;;;;;;18.33;10.33;;;5.20;99.90;;;;;;5076248;28;20484;-71
2021/01/18 03:51:37;;;;;;;9.83;7.50;;;5.10;99.90;;;;;;5080134;28;20455;-70
2021/01/18 03:54:04;;;;;;;12.63;8.50;;;5.10;99.90;;;;;;5080565;28;20496;-71
2021/01/18 03:56:37;;;;;;;13.57;7.83;;;5.10;99.90;;;;;;5076591;28;20963;-70
2021/01/18 03:59:04;;;;;;;7.93;7.00;;;5.00;99.90;;;;;;5074728;28;20481;-70
2021/01/18 04:01:35;;;;;;;30.17;11.10;;;5.00;99.90;;;;;;5074205;28;20519;-71
2021/01/18 04:04:02;;;;;;;16.33;5.30;;;5.00;99.90;;;;;;5079774;28;20979;-70
2021/01/18 04:06:37;;;;;;;12.20;7.33;;;5.00;99.90;;;;;;5070440;28;21028;-71
2021/01/18 04:09:04;;;;;;;11.43;6.33;;;5.00;99.90;;;;;;5081322;28;20444;-71
2021/01/18 04:11:32;;;;;;;15.00;7.97;;;4.90;99.90;;;;;;5082668;28;20453;-71
2021/01/18 04:13:59;;;;;;;20.43;9.40;;;5.00;99.90;;;;;;5068863;28;20864;-70
2021/01/18 04:16:26;;;;;;;25.73;9.27;;;5.00;99.90;;;;;;5079756;28;20449;-70
2021/01/18 04:18:52;;;;;;;13.70;8.50;;;5.00;99.90;;;;;;5081376;28;21386;-71
2021/01/18 04:21:19;;;;;;;10.17;8.50;;;4.90;99.90;;;;;;5078422;28;20522;-71
2021/01/18 04:23:46;;;;;;;13.13;8.20;;;4.90;99.90;;;;;;5066828;28;20527;-71
2021/01/18 04:26:14;;;;;;;9.83;7.97;;;4.90;99.90;;;;;;5077078;28;20943;-71
2021/01/18 04:28:41;;;;;;;15.20;9.83;;;4.80;99.90;;;;;;5083599;28;20477;-71
2021/01/18 04:31:08;;;;;;;5.13;3.90;;;4.90;99.90;;;;;;5073730;28;20489;-71
2021/01/18 04:33:35;;;;;;;7.97;5.40;;;4.90;99.90;;;;;;5075509;28;21044;-71
2021/01/18 04:36:02;;;;;;;11.93;9.23;;;4.90;99.90;;;;;;5056397;28;20523;-71
2021/01/18 04:38:28;;;;;;;10.73;7.20;;;4.90;99.90;;;;;;5066734;28;20497;-71
2021/01/18 04:40:55;;;;;;;9.97;5.60;;;5.00;99.90;;;;;;5074540;28;20496;-70
2021/01/18 04:43:21;;;;;;;9.90;7.60;;;5.00;99.90;;;;;;5075972;28;20533;-71
2021/01/18 04:45:51;;;;;;;24.87;8.23;;;5.10;99.90;;;;;;5073064;28;20539;-69
2021/01/18 04:48:18;;;;;;;9.97;6.63;;;5.00;99.90;;;;;;5073242;28;20893;-71
2021/01/18 04:50:44;;;;;;;27.03;12.00;;;5.00;99.90;;;;;;5081451;28;20417;-71
2021/01/18 04:53:15;;;;;;;17.07;12.63;;;5.00;99.90;;;;;;5072247;28;20447;-70
2021/01/18 04:56:03;;;;;;;12.40;4.80;;;5.00;99.90;;;;;;5073357;28;20537;-70
2021/01/18 04:58:30;;;;;;;23.73;10.53;;;5.00;99.90;;;;;;5077247;28;20475;-70
2021/01/18 05:01:04;;;;;;;13.47;8.90;;;5.00;99.90;;;;;;5075009;28;20467;-72
2021/01/18 05:03:35;;;;;;;15.77;8.63;;;5.10;99.90;;;;;;5077584;28;20546;-69
2021/01/18 05:06:32;;;;;;;10.90;7.40;;;5.10;99.90;;;;;;5069794;28;20469;-70
2021/01/18 05:09:29;;;;;;;20.20;9.90;;;5.20;99.90;;;;;;5073355;28;20476;-71
2021/01/18 05:11:56;;;;;;;18.73;9.20;;;5.20;99.90;;;;;;5072313;28;20464;-71
2021/01/18 05:14:23;;;;;;;6.60;5.90;;;5.20;99.90;;;;;;5071408;28;20439;-71
2021/01/18 05:16:56;;;;;;;10.90;6.37;;;5.30;99.90;;;;;;5077236;28;20455;-71
2021/01/18 05:19:25;;;;;;;16.03;9.30;;;5.30;99.90;;;;;;5090785;28;20930;-71
2021/01/18 05:21:52;;;;;;;17.07;13.70;;;5.20;99.90;;;;;;5076419;28;20497;-70
2021/01/18 05:24:19;;;;;;;17.23;10.07;;;5.20;99.90;;;;;;5073190;28;20537;-71
2021/01/18 05:27:01;;;;;;;10.73;7.37;;;5.20;99.90;;;;;;5075694;28;20495;-71
2021/01/18 05:29:33;;;;;;;13.57;9.60;;;5.10;99.90;;;;;;5076528;28;21049;-71
2021/01/18 05:32:00;;;;;;;16.50;10.70;;;5.20;99.90;;;;;;5078226;28;20456;-71
2021/01/18 05:34:28;;;;;;;15.63;7.23;;;5.20;99.90;;;;;;5067721;28;20528;-71
2021/01/18 05:36:56;;;;;;;17.40;12.30;;;5.30;99.90;;;;;;5079351;28;20535;-70
2021/01/18 05:39:24;;;;;;;25.73;10.17;;;5.20;99.90;;;;;;5064864;28;21206;-72
2021/01/18 05:41:52;;;;;;;17.90;9.03;;;5.20;99.90;;;;;;5069654;28;20454;-72
2021/01/18 05:44:20;;;;;;;13.57;9.70;;;5.20;99.90;;;;;;5077900;28;20425;-72
2021/01/18 05:46:47;;;;;;;21.17;11.07;;;5.20;99.90;;;;;;5077567;28;20492;-71
2021/01/18 05:49:17;;;;;;;14.00;7.90;;;5.30;99.90;;;;;;5073911;28;20884;-72
2021/01/18 05:51:50;;;;;;;7.03;5.80;;;5.30;99.90;;;;;;5071106;28;20435;-72
2021/01/18 05:54:22;;;;;;;20.73;12.03;;;5.30;99.90;;;;;;5069939;28;20521;-72
2021/01/18 05:56:51;;;;;;;14.67;9.20;;;5.40;99.90;;;;;;5074771;28;20501;-73
2021/01/18 05:59:20;;;;;;;13.07;7.60;;;5.40;99.90;;;;;;5077197;28;20450;-72
2021/01/18 06:01:48;;;;;;;34.57;12.70;;;5.40;99.90;;;;;;5082809;28;20440;-73
2021/01/18 06:04:16;;;;;;;19.03;11.40;;;5.50;99.90;;;;;;5078350;28;20463;-70
2021/01/18 06:06:53;;;;;;;11.87;6.57;;;5.40;99.90;;;;;;5083267;28;20576;-70
2021/01/18 06:09:20;;;;;;;14.70;9.17;;;5.50;99.90;;;;;;5068526;28;20563;-72
2021/01/18 06:11:46;;;;;;;16.37;10.50;;;5.40;99.90;;;;;;5074202;28;20530;-71
2021/01/18 06:14:13;;;;;;;24.37;14.10;;;5.40;99.90;;;;;;5076769;28;20997;-70
2021/01/18 06:16:41;;;;;;;23.03;15.30;;;5.50;99.90;;;;;;5084415;28;20504;-70
2021/01/18 06:19:08;;;;;;;23.27;12.83;;;5.40;99.90;;;;;;5076358;28;20465;-70
2021/01/18 06:21:37;;;;;;;22.90;11.37;;;5.40;99.90;;;;;;5084295;28;20439;-71
2021/01/18 06:24:18;;;;;;;14.20;10.00;;;5.40;99.90;;;;;;5077488;28;20451;-70
2021/01/18 06:26:45;;;;;;;23.33;14.13;;;5.50;99.90;;;;;;5079230;28;20483;-70
2021/01/18 06:29:31;;;;;;;23.70;12.73;;;5.50;99.90;;;;;;5087388;28;20489;-70
2021/01/18 06:31:58;;;;;;;28.60;11.87;;;5.50;99.90;;;;;;5078665;28;20462;-71
2021/01/18 06:34:28;;;;;;;25.47;12.70;;;5.50;99.90;;;;;;5076789;28;20532;-71
2021/01/18 06:36:56;;;;;;;18.73;12.17;;;5.50;99.90;;;;;;5079995;28;20523;-69
2021/01/18 06:39:26;;;;;;;29.53;13.73;;;5.50;99.90;;;;;;5085599;28;20489;-69
2021/01/18 06:42:00;;;;;;;23.13;12.20;;;5.60;99.90;;;;;;5079095;28;20436;-70
2021/01/18 06:44:37;;;;;;;23.23;11.90;;;5.50;99.90;;;;;;5082235;28;20853;-69
2021/01/18 06:47:29;;;;;;;14.37;11.90;;;5.50;99.90;;;;;;5082675;28;20677;-70
2021/01/18 06:49:57;;;;;;;16.07;10.23;;;5.50;99.90;;;;;;5078235;28;20565;-70
2021/01/18 06:52:27;;;;;;;10.93;5.33;;;5.50;99.90;;;;;;5080349;28;20471;-70
2021/01/18 06:55:03;;;;;;;23.20;12.47;;;5.40;99.90;;;;;;5085674;28;20553;-71
2021/01/18 06:57:47;;;;;;;18.87;12.77;;;5.40;99.90;;;;;;5083681;28;20565;-69
2021/01/18 07:00:15;;;;;;;31.87;13.30;;;5.30;99.90;;;;;;5078104;28;20464;-72
2021/01/18 07:02:54;;;;;;;16.03;10.20;;;5.30;99.90;;;;;;5078065;28;20846;-71
2021/01/18 07:05:36;;;;;;;23.57;11.10;;;5.30;99.90;;;;;;5084479;28;20454;-70
2021/01/18 07:08:13;;;;;;;7.60;6.03;;;5.30;99.90;;;;;;5088801;28;20480;-71
2021/01/18 07:10:46;;;;;;;24.40;11.33;;;5.30;99.90;;;;;;5075088;28;20484;-70
2021/01/18 07:13:12;;;;;;;30.43;10.60;;;5.30;99.90;;;;;;5078074;28;20461;-70
2021/01/18 07:15:42;;;;;;;20.47;9.33;;;5.10;99.90;;;;;;5088478;28;20457;-70
2021/01/18 07:18:10;;;;;;;21.30;11.80;;;5.20;99.90;;;;;;5081150;28;20488;-70
2021/01/18 07:20:42;;;;;;;11.40;8.17;;;5.20;99.90;;;;;;5077639;28;20497;-69
2021/01/18 07:23:27;;;;;;;11.40;6.33;;;5.20;99.90;;;;;;5084725;28;20428;-70
2021/01/18 07:26:16;;;;;;;25.70;9.97;;;5.20;99.90;;;;;;5082967;28;20432;-70
2021/01/18 07:28:48;;;;;;;35.33;11.10;;;5.20;99.90;;;;;;5082175;28;21079;-71
2021/01/18 07:31:18;;;;;;;17.23;9.77;;;5.30;99.90;;;;;;5087653;28;20536;-71
2021/01/18 07:33:46;;;;;;;18.30;12.13;;;5.20;99.90;;;;;;5078222;28;20480;-71
2021/01/18 07:36:24;;;;;;;11.20;9.73;;;5.30;99.90;;;;;;5078311;28;20461;-69
2021/01/18 07:38:51;;;;;;;13.43;7.10;;;5.30;99.90;;;;;;5079563;28;20470;-70
2021/01/18 07:41:20;;;;;;;21.93;9.60;;;5.30;99.90;;;;;;5084799;28;20458;-69
2021/01/18 07:43:48;;;;;;;9.90;8.80;;;5.20;99.90;;;;;;5082801;28;20481;-70
2021/01/18 07:46:37;;;;;;;7.77;5.70;;;5.40;99.90;;;;;;5077619;28;20842;-70
2021/01/18 07:49:33;;;;;;;17.77;10.27;;;5.30;99.90;;;;;;5077511;28;20467;-69
2021/01/18 07:52:20;;;;;;;13.73;8.53;;;5.30;99.90;;;;;;5080956;28;20431;-72
2021/01/18 07:54:47;;;;;;;24.00;9.87;;;5.30;99.90;;;;;;5078939;28;20457;-72
2021/01/18 07:57:40;;;;;;;13.53;9.27;;;5.20;99.90;;;;;;5078825;28;20527;-71
2021/01/18 08:00:39;;;;;;;28.70;9.70;;;5.30;99.90;;;;;;5076981;28;20949;-72
2021/01/18 08:03:24;;;;;;;12.27;7.23;;;5.20;99.90;;;;;;5082676;28;20467;-71
2021/01/18 08:06:13;;;;;;;24.17;10.97;;;5.30;99.90;;;;;;5084175;28;20451;-71
2021/01/18 08:08:40;;;;;;;10.70;8.50;;;5.20;99.90;;;;;;5085150;28;20470;-70
2021/01/18 08:11:18;;;;;;;23.67;11.90;;;5.30;99.90;;;;;;5074573;28;20433;-71
2021/01/18 08:13:49;;;;;;;14.93;11.20;;;5.40;99.90;;;;;;5078277;28;20894;-71
2021/01/18 08:16:22;;;;;;;19.40;10.73;;;5.30;99.90;;;;;;5082354;28;20464;-71
2021/01/18 08:19:00;;;;;;;19.20;13.83;;;5.40;99.90;;;;;;5082626;28;20459;-71
2021/01/18 08:21:57;;;;;;;26.70;13.90;;;5.40;99.90;;;;;;5084359;28;20427;-71
2021/01/18 08:24:55;;;;;;;19.27;13.57;;;5.40;99.90;;;;;;5083472;28;20431;-71
2021/01/18 08:27:48;;;;;;;18.00;13.97;;;5.40;99.90;;;;;;5073800;28;20456;-71
2021/01/18 08:30:34;;;;;;;26.60;12.13;;;5.40;99.90;;;;;;5081114;28;20505;-71
2021/01/18 08:33:03;;;;;;;15.47;10.63;;;5.30;99.90;;;;;;5077137;28;20483;-70
2021/01/18 08:35:31;;;;;;;17.27;11.23;;;5.30;99.90;;;;;;5075546;28;20458;-72
2021/01/18 08:38:01;;;;;;;16.57;10.97;;;5.40;99.90;;;;;;5080178;28;20485;-70
2021/01/18 08:40:33;;;;;;;17.23;7.50;;;5.30;99.90;;;;;;5083966;28;20457;-70
2021/01/18 08:43:00;;;;;;;17.43;11.37;;;5.40;99.90;;;;;;5085888;28;20516;-70
2021/01/18 08:45:29;;;;;;;18.10;11.93;;;5.40;99.90;;;;;;5080630;28;20465;-71
2021/01/18 08:47:58;;;;;;;26.23;13.20;;;5.30;99.90;;;;;;5080897;28;20467;-72
2021/01/18 08:50:27;;;;;;;10.27;5.70;;;5.40;99.90;;;;;;5083724;28;20553;-71
2021/01/18 08:52:55;;;;;;;20.63;13.83;;;5.50;99.90;;;;;;5079049;28;20861;-71
2021/01/18 08:55:43;;;;;;;24.93;11.57;;;5.50;99.90;;;;;;5075363;28;20483;-72
2021/01/18 08:58:10;;;;;;;11.70;8.87;;;5.60;99.90;;;;;;5084946;28;20482;-71
2021/01/18 09:00:42;;;;;;;17.90;11.10;;;5.60;99.90;;;;;;5083276;28;20482;-72
2021/01/18 09:03:09;;;;;;;25.10;10.70;;;5.60;99.90;;;;;;5077046;28;20480;-70
2021/01/18 09:05:36;;;;;;;20.73;9.40;;;5.60;99.90;;;;;;5084315;28;20481;-71
2021/01/18 09:08:06;;;;;;;30.70;10.13;;;5.60;99.90;;;;;;5090135;28;20508;-70
2021/01/18 09:10:33;;;;;;;8.93;7.57;;;5.70;99.90;;;;;;5081035;28;20959;-72
2021/01/18 09:13:03;;;;;;;8.13;5.60;;;5.60;99.90;;;;;;5077994;28;20490;-71
2021/01/18 09:15:31;;;;;;;24.07;8.13;;;5.60;99.90;;;;;;5085650;28;20861;-70
2021/01/18 09:18:03;;;;;;;22.00;8.13;;;5.60;99.90;;;;;;5082742;28;20456;-70
2021/01/18 09:20:29;;;;;;;14.60;8.40;;;5.60;99.90;;;;;;5077401;28;20456;-72
2021/01/18 09:23:03;;;;;;;13.43;8.50;;;5.60;99.90;;;;;;5081339;28;20991;-70
2021/01/18 09:25:30;;;;;;;16.63;9.07;;;5.70;99.90;;;;;;5076019;28;20461;-71
2021/01/18 09:28:02;;;;;;;10.63;8.13;;;5.70;99.90;;;;;;5078289;28;20448;-71
2021/01/18 09:30:30;;;;;;;20.07;10.20;;;5.80;99.90;;;;;;5074881;28;21002;-70
2021/01/18 09:32:58;;;;;;;13.80;9.57;;;5.80;99.90;;;;;;5074797;28;20469;-72
2021/01/18 09:35:26;;;;;;;16.60;8.20;;;5.80;99.90;;;;;;5082595;28;20468;-70
2021/01/18 09:37:53;;;;;;;16.30;8.50;;;5.90;99.90;;;;;;5080726;28;20963;-71
2021/01/18 09:40:20;;;;;;;19.77;5.60;;;5.90;99.90;;;;;;5077642;28;20948;-72
2021/01/18 09:42:47;;;;;;;12.57;9.13;;;5.90;99.90;;;;;;5075790;28;20436;-72
2021/01/18 09:45:15;;;;;;;8.90;6.60;;;5.90;99.90;;;;;;5078501;28;20836;-70
2021/01/18 09:47:43;;;;;;;16.63;8.43;;;5.90;99.90;;;;;;5078402;28;20497;-72
2021/01/18 09:50:11;;;;;;;11.13;4.23;;;5.80;99.90;;;;;;5079815;28;20481;-72
2021/01/18 09:52:42;;;;;;;12.60;8.83;;;5.70;99.90;;;;;;5074363;28;20545;-70
2021/01/18 09:55:15;;;;;;;14.57;7.67;;;5.80;99.90;;;;;;5081045;28;20435;-71
2021/01/18 09:57:45;;;;;;;15.37;8.23;;;5.90;99.90;;;;;;5074565;28;20783;-72
2021/01/18 10:00:14;;;;;;;6.73;5.83;;;5.80;99.90;;;;;;5082074;28;20496;-72
2021/01/18 10:02:44;;;;;;;20.30;9.67;;;5.80;99.90;;;;;;5075533;28;20456;-71
2021/01/18 10:05:27;;;;;;;3.30;3.07;;;5.80;99.90;;;;;;5084847;28;20457;-71
2021/01/18 10:07:53;;;;;;;11.40;7.93;;;5.80;99.90;;;;;;5083873;28;20486;-72
2021/01/18 10:10:20;;;;;;;9.00;6.00;;;5.80;99.90;;;;;;5077707;28;20453;-70
2021/01/18 10:12:52;;;;;;;28.03;12.43;;;5.70;99.90;;;;;;5075121;28;20557;-72
2021/01/18 10:15:28;;;;;;;20.97;12.30;;;5.70;99.90;;;;;;5070455;28;20466;-72
2021/01/18 10:17:56;;;;;;;12.23;6.20;;;5.70;99.90;;;;;;5074789;28;20470;-70
2021/01/18 10:20:27;;;;;;;14.47;7.87;;;5.70;99.90;;;;;;5086971;28;20456;-70
2021/01/18 10:22:54;;;;;;;10.40;4.17;;;5.70;99.90;;;;;;5080321;28;20518;-71
2021/01/18 10:25:25;;;;;;;8.10;4.90;;;5.80;99.90;;;;;;5083385;28;20814;-71
2021/01/18 10:27:53;;;;;;;14.20;6.93;;;5.90;99.90;;;;;;5084182;28;20513;-70
2021/01/18 10:30:22;;;;;;;13.37;10.00;;;6.00;99.90;;;;;;5083429;28;20918;-72
2021/01/18 10:32:51;;;;;;;20.00;11.57;;;6.10;99.90;;;;;;5087301;28;20435;-71
2021/01/18 10:35:22;;;;;;;30.07;13.33;;;6.10;99.90;;;;;;5083581;28;20469;-70
2021/01/18 10:37:49;;;;;;;15.60;7.60;;;6.00;99.90;;;;;;5079670;28;20540;-71
2021/01/18 10:40:22;;;;;;;23.03;11.83;;;6.20;99.90;;;;;;5075444;28;20866;-70
2021/01/18 10:42:50;;;;;;;20.17;9.20;;;6.30;99.90;;;;;;5081023;28;20453;-72
2021/01/18 10:45:18;;;;;;;19.43;7.73;;;6.30;99.90;;;;;;5081730;28;20429;-69
2021/01/18 10:47:54;;;;;;;16.30;9.87;;;6.30;99.90;;;;;;5083718;28;20474;-69
2021/01/18 10:50:26;;;;;;;4.50;3.87;;;6.20;99.90;;;;;;5080734;28;22336;-70
2021/01/18 10:53:05;;;;;;;11.43;6.93;;;6.20;99.90;;;;;;5081896;28;20425;-70
2021/01/18 10:55:32;;;;;;;10.23;6.87;;;6.20;99.90;;;;;;5076444;28;20458;-69
2021/01/18 10:57:59;;;;;;;8.03;4.53;;;6.30;99.90;;;;;;5083351;28;20885;-69
2021/01/18 11:00:27;;;;;;;6.10;3.90;;;6.20;99.90;;;;;;5082076;28;20533;-70
2021/01/18 11:02:56;;;;;;;12.87;8.33;;;6.20;99.90;;;;;;5085210;28;20451;-70
2021/01/18 11:05:32;;;;;;;17.60;9.70;;;6.40;99.90;;;;;;5080594;28;21233;-69
2021/01/18 11:08:00;;;;;;;12.60;5.40;;;6.40;99.90;;;;;;5079988;28;21003;-69
2021/01/18 11:10:27;;;;;;;9.20;6.40;;;6.30;99.90;;;;;;5084195;28;20469;-70
2021/01/18 11:13:04;;;;;;;16.27;9.57;;;6.30;99.90;;;;;;5086188;28;21014;-70
2021/01/18 11:15:32;;;;;;;14.50;7.57;;;6.30;99.90;;;;;;5083276;28;20878;-69
2021/01/18 11:17:59;;;;;;;24.00;9.77;;;6.40;99.90;;;;;;5088647;28;20509;-69
2021/01/18 11:20:27;;;;;;;23.53;10.43;;;6.50;99.90;;;;;;5083522;28;20464;-70
2021/01/18 11:22:54;;;;;;;12.53;7.90;;;6.60;99.90;;;;;;5087635;28;20492;-70
2021/01/18 11:25:21;;;;;;;13.77;6.67;;;6.70;99.90;;;;;;5082879;28;20455;-69
2021/01/18 11:27:48;;;;;;;16.00;5.87;;;6.60;99.90;;;;;;5078007;28;20560;-70
2021/01/18 11:30:15;;;;;;;11.40;6.10;;;6.50;99.90;;;;;;5090631;28;20476;-70
2021/01/18 11:32:43;;;;;;;10.00;3.47;;;6.40;99.90;;;;;;5078287;28;20465;-70
2021/01/18 11:35:11;;;;;;;1.93;1.70;;;6.50;99.90;;;;;;5079606;28;20810;-70
2021/01/18 11:37:40;;;;;;;16.93;6.93;;;6.60;99.90;;;;;;5079030;28;20634;-71
2021/01/18 11:40:10;;;;;;;4.87;3.23;;;6.80;99.90;;;;;;5083293;28;20594;-71
2021/01/18 11:42:38;;;;;;;19.20;8.57;;;6.80;99.90;;;;;;5078038;28;21012;-71
2021/01/18 11:45:09;;;;;;;20.07;7.87;;;6.80;99.90;;;;;;5083384;28;20443;-69
2021/01/18 11:47:40;;;;;;;5.50;4.20;;;6.80;99.90;;;;;;5089794;28;20493;-70
2021/01/18 11:50:09;;;;;;;4.07;3.57;;;6.80;99.90;;;;;;5087919;28;21004;-69
2021/01/18 11:52:41;;;;;;;16.27;5.83;;;6.80;99.90;;;;;;5083301;28;20575;-70
2021/01/18 11:55:11;;;;;;;7.37;4.13;;;6.60;99.90;;;;;;5080418;28;20469;-72
2021/01/18 11:57:41;;;;;;;10.27;7.40;;;6.60;99.90;;;;;;5082915;28;20475;-70
2021/01/18 12:00:10;;;;;;;5.87;3.23;;;6.50;99.90;;;;;;5078669;28;20891;-69
2021/01/18 12:02:36;;;;;;;14.30;6.77;;;6.50;99.90;;;;;;5081063;28;20521;-69
2021/01/18 12:05:04;;;;;;;14.13;6.60;;;6.40;99.90;;;;;;5077258;28;20988;-72
2021/01/18 12:07:31;;;;;;;4.30;3.20;;;6.40;99.90;;;;;;5077018;28;21013;-72
2021/01/18 12:09:57;;;;;;;16.80;6.67;;;6.50;99.90;;;;;;5078226;28;20478;-70
2021/01/18 12:12:25;;;;;;;6.10;5.33;;;6.50;99.90;;;;;;5084066;28;20450;-69
2021/01/18 12:14:51;;;;;;;4.70;3.20;;;6.60;99.90;;;;;;5069745;28;20462;-72
2021/01/18 12:17:18;;;;;;;6.70;3.20;;;6.50;99.90;;;;;;5076918;28;20493;-71
2021/01/18 12:19:46;;;;;;;10.93;5.10;;;6.50;99.90;;;;;;5079931;28;20501;-70
2021/01/18 12:22:17;;;;;;;18.57;5.07;;;6.50;99.90;;;;;;5089558;28;20474;-72
2021/01/18 12:24:44;;;;;;;6.77;6.17;;;6.50;99.90;;;;;;5090655;28;20461;-70
2021/01/18 12:27:11;;;;;;;4.67;4.20;;;6.60;99.90;;;;;;5086365;28;20580;-72
2021/01/18 12:29:38;;;;;;;5.73;4.23;;;6.70;99.90;;;;;;5079949;28;20480;-71
2021/01/18 12:32:05;;;;;;;9.07;4.10;;;6.70;99.90;;;;;;5079109;28;20493;-71
2021/01/18 12:34:32;;;;;;;19.90;4.23;;;6.70;99.90;;;;;;5083727;28;20454;-70
2021/01/18 12:36:59;;;;;;;10.73;5.10;;;6.60;99.90;;;;;;5089101;28;20489;-71
2021/01/18 12:39:26;;;;;;;4.03;2.70;;;6.60;99.90;;;;;;5090280;28;20511;-73
2021/01/18 12:41:53;;;;;;;4.10;3.70;;;6.60;99.90;;;;;;5076707;28;20554;-70
2021/01/18 12:44:20;;;;;;;3.80;1.17;;;6.60;99.90;;;;;;5076959;28;20478;-71
2021/01/18 12:46:49;;;;;;;9.53;4.80;;;6.60;99.90;;;;;;5081892;28;20520;-71
2021/01/18 12:49:16;;;;;;;10.10;4.77;;;6.60;99.90;;;;;;5078988;28;20512;-70
2021/01/18 12:51:50;;;;;;;4.00;3.23;;;6.70;99.90;;;;;;5075858;28;20437;-71
2021/01/18 12:54:16;;;;;;;6.47;3.73;;;6.80;99.90;;;;;;5075305;28;20453;-71
2021/01/18 12:56:43;;;;;;;14.50;5.40;;;6.80;99.90;;;;;;5080193;28;20486;-70
2021/01/18 12:59:10;;;;;;;5.23;4.43;;;6.80;99.90;;;;;;5080679;28;20450;-71
2021/01/18 13:01:37;;;;;;;5.80;1.97;;;6.90;99.90;;;;;;5078976;28;20538;-70
2021/01/18 13:04:05;;;;;;;6.20;1.93;;;7.00;99.90;;;;;;5080226;28;20957;-72